Aysenur — ERJR — position and weather

sailwx.info

Track history (hours):
 
Tides and Currents Weather Stations Pressure Air Temp Water Temp Dewpoint Dewpoint Depression Visibility Wind Speed Wind Dir Waves Ship Positions

Aysenur

Last reported at 2014-Aug-23 03:24 UTC. Time now 2014-Aug-28 23:22 UTC.
Position N 40°53' E 029°10'.

Length 81 m; draft 4 m.

Type: Cargo ship. MMSI: 214181018.

Date/timePositionNaut miles runAvg speedWind from/ knotsBaromVisibWave heightAir tempDewpointWater temp
2014-Aug-23 03:24N 40°53' E 029°10'0 0.0
2014-Aug-23 01:30N 40°53' E 029°10'0 0.0
2014-Aug-23 00:30N 40°53' E 029°10'1 0.8
2014-Aug-22 23:33N 40°52' E 029°11'8 8.2
2014-Aug-22 22:33N 40°46' E 029°17'1210.0
2014-Aug-22 21:21N 40°45' E 029°33'2 0.1
2014-Aug-21 20:12N 40°45' E 029°31'6 8.8
2014-Aug-21 19:31N 40°44' E 029°23'9 9.4
2014-Aug-21 18:33N 40°46' E 029°11'9 9.4
2014-Aug-21 17:33N 40°51' E 029°00'9 8.8
2014-Aug-21 16:32N 40°59' E 028°56'0 0.1
2014-Aug-21 15:27N 40°59' E 028°56'0 0.1
2014-Aug-21 14:33N 40°59' E 028°56'3 2.8
2014-Aug-21 13:33N 40°59' E 028°59'  
Track history (hours):
 
Tides and Currents Weather Stations Pressure Air Temp Water Temp Dewpoint Dewpoint Depression Visibility Wind Speed Wind Dir Waves Ship Positions

Aysenur

Last reported at 2014-Aug-23 03:24 UTC. Time now 2014-Aug-28 23:22 UTC.
Position N 40°53' E 029°10'.

Length 81 m; draft 4 m.

Type: Cargo ship. MMSI: 214181018.

Date/timePositionNaut miles runAvg speedWind from/ knotsBaromVisibWave heightAir tempDewpointWater temp
2014-Aug-23 03:24N 40°53' E 029°10'0 0.0
2014-Aug-23 01:30N 40°53' E 029°10'0 0.0
2014-Aug-23 00:30N 40°53' E 029°10'1 0.8
2014-Aug-22 23:33N 40°52' E 029°11'8 8.2
2014-Aug-22 22:33N 40°46' E 029°17'1210.0
2014-Aug-22 21:21N 40°45' E 029°33'2 0.1
2014-Aug-21 20:12N 40°45' E 029°31'6 8.8
2014-Aug-21 19:31N 40°44' E 029°23'9 9.4
2014-Aug-21 18:33N 40°46' E 029°11'9 9.4
2014-Aug-21 17:33N 40°51' E 029°00'9 8.8
2014-Aug-21 16:32N 40°59' E 028°56'0 0.1
2014-Aug-21 15:27N 40°59' E 028°56'0 0.1
2014-Aug-21 14:33N 40°59' E 028°56'3 2.8
2014-Aug-21 13:33N 40°59' E 028°59'  

Dump ship's entire track history